Time;durP1;ratioP1;P1;durP2;ratioP2;P2;SDS_P1;SDS_P2;PMS_P1;PMS_P2;Temp;Humidity;BMP_temperature;BMP_pressure;BME280_temperature;BME280_humidity;BME280_pressure;Samples;Min_cycle;Max_cycle;Signal;HPM_P1;HPM_P2
2024/04/04 00:01:14;;;;;;;6.38;5.47;;;9.70;99.90;;;;;;4966880;28;20026;-54
2024/04/04 00:03:39;;;;;;;7.65;6.22;;;9.70;99.90;;;;;;4891045;28;20018;-54
2024/04/04 00:06:05;;;;;;;8.35;6.53;;;9.70;99.90;;;;;;4915736;28;20022;-60
2024/04/04 00:08:31;;;;;;;6.75;5.85;;;9.70;99.90;;;;;;4945978;28;20025;-54
2024/04/04 00:11:07;;;;;;;10.75;7.05;;;9.70;99.90;;;;;;4938545;28;20029;-52
2024/04/04 00:13:33;;;;;;;7.47;6.53;;;9.70;99.90;;;;;;4941199;28;20040;-61
2024/04/04 00:15:59;;;;;;;8.20;6.82;;;9.70;99.90;;;;;;4954476;28;20034;-53
2024/04/04 00:18:25;;;;;;;10.32;6.60;;;9.70;99.90;;;;;;4911763;28;22306;-54
2024/04/04 00:20:51;;;;;;;8.10;6.72;;;9.70;99.90;;;;;;4971887;28;20045;-56
2024/04/04 00:23:16;;;;;;;8.38;7.50;;;9.70;99.90;;;;;;4902621;28;20040;-55
2024/04/04 00:25:42;;;;;;;9.07;7.03;;;9.70;99.90;;;;;;4903434;28;20104;-51
2024/04/04 00:28:08;;;;;;;11.18;7.65;;;9.70;99.90;;;;;;4964571;28;20100;-52
2024/04/04 00:30:34;;;;;;;11.90;7.28;;;9.70;99.90;;;;;;4926109;28;20108;-52
2024/04/04 00:33:00;;;;;;;8.48;6.82;;;9.60;99.90;;;;;;4931546;28;20076;-60
2024/04/04 00:35:26;;;;;;;9.85;7.05;;;9.60;99.90;;;;;;4931662;28;20083;-53
2024/04/04 00:37:52;;;;;;;10.02;7.43;;;9.60;99.90;;;;;;4914155;28;20054;-58
2024/04/04 00:40:17;;;;;;;13.15;7.13;;;9.60;99.90;;;;;;4959633;28;20386;-49
2024/04/04 00:42:48;;;;;;;10.48;6.95;;;9.60;99.90;;;;;;4896677;28;20032;-50
2024/04/04 00:45:13;;;;;;;8.90;7.18;;;9.60;99.90;;;;;;4894617;28;20086;-54
2024/04/04 00:47:42;;;;;;;8.07;6.50;;;9.60;99.90;;;;;;4938875;28;20038;-49
2024/04/04 00:50:08;;;;;;;8.63;6.80;;;9.70;99.90;;;;;;4885303;28;20041;-53
2024/04/04 00:52:34;;;;;;;11.68;7.00;;;9.70;99.90;;;;;;4901337;28;20034;-59
2024/04/04 00:55:00;;;;;;;9.95;7.53;;;9.70;99.90;;;;;;4953669;28;20255;-52
2024/04/04 00:57:26;;;;;;;10.10;6.95;;;9.70;99.90;;;;;;4873590;28;21612;-53
2024/04/04 00:59:52;;;;;;;7.68;6.88;;;9.70;99.90;;;;;;4952240;28;20080;-54
2024/04/04 01:02:17;;;;;;;11.57;7.82;;;9.70;99.90;;;;;;4903434;28;20702;-53
2024/04/04 01:04:44;;;;;;;10.15;7.90;;;9.70;99.90;;;;;;4890570;28;20998;-53
2024/04/04 01:07:11;;;;;;;9.85;7.40;;;9.70;99.90;;;;;;4950421;28;20026;-50
2024/04/04 01:09:37;;;;;;;10.73;6.90;;;9.70;99.90;;;;;;4872186;28;20028;-51
2024/04/04 01:12:04;;;;;;;9.43;6.65;;;9.60;99.90;;;;;;4904089;28;20034;-59
2024/04/04 01:14:29;;;;;;;12.75;7.53;;;9.60;99.90;;;;;;4924725;28;20434;-54
2024/04/04 01:16:55;;;;;;;10.93;7.75;;;9.70;99.90;;;;;;4895294;28;21726;-48
2024/04/04 01:19:20;;;;;;;12.65;7.55;;;9.60;99.90;;;;;;4946392;28;20037;-54
2024/04/04 01:21:46;;;;;;;9.00;7.38;;;9.60;99.90;;;;;;4883196;28;20173;-50
2024/04/04 01:24:11;;;;;;;9.40;7.05;;;9.70;99.90;;;;;;4875769;28;20034;-54
2024/04/04 01:26:37;;;;;;;12.80;8.40;;;9.60;99.90;;;;;;4934446;28;20022;-50
2024/04/04 01:29:03;;;;;;;12.70;7.97;;;9.70;99.90;;;;;;4903446;28;20144;-49
2024/04/04 01:31:30;;;;;;;9.35;8.18;;;9.60;99.90;;;;;;4944267;28;20573;-52
2024/04/04 01:33:55;;;;;;;11.35;8.40;;;9.70;99.90;;;;;;4916283;28;20030;-52
2024/04/04 01:36:21;;;;;;;19.98;8.45;;;9.60;99.90;;;;;;4866462;28;22231;-53
2024/04/04 01:38:47;;;;;;;9.15;7.47;;;9.70;99.90;;;;;;4955016;28;20125;-51
2024/04/04 01:41:13;;;;;;;12.65;8.63;;;9.70;99.90;;;;;;4914328;28;20034;-55
2024/04/04 01:43:38;;;;;;;10.68;7.50;;;9.60;99.90;;;;;;4914739;28;20061;-58
2024/04/04 01:46:04;;;;;;;11.02;8.07;;;9.70;99.90;;;;;;4945670;28;20022;-52
2024/04/04 01:48:30;;;;;;;11.80;7.43;;;9.70;99.90;;;;;;4906268;28;20035;-51
2024/04/04 01:50:55;;;;;;;10.05;7.57;;;9.60;99.90;;;;;;4964044;28;20028;-52
2024/04/04 01:53:21;;;;;;;9.60;7.32;;;9.70;99.90;;;;;;4911362;28;20084;-51
2024/04/04 01:55:46;;;;;;;11.57;7.45;;;9.70;99.90;;;;;;4906104;28;20030;-51
2024/04/04 01:58:12;;;;;;;10.93;8.30;;;9.70;99.90;;;;;;4937458;28;20590;-54
2024/04/04 02:00:38;;;;;;;10.38;7.78;;;9.60;99.90;;;;;;4903155;28;20029;-55
2024/04/04 02:03:04;;;;;;;9.63;6.75;;;9.60;99.90;;;;;;4920612;28;20049;-59
2024/04/04 02:05:32;;;;;;;12.40;8.18;;;9.60;99.90;;;;;;4947759;28;20521;-52
2024/04/04 02:07:57;;;;;;;12.70;9.15;;;9.60;99.90;;;;;;4906879;28;21489;-53
2024/04/04 02:10:23;;;;;;;12.32;8.65;;;9.60;99.90;;;;;;4936411;28;20510;-53
2024/04/04 02:12:48;;;;;;;11.02;8.32;;;9.60;99.90;;;;;;4899946;28;20029;-53
2024/04/04 02:15:15;;;;;;;9.35;8.20;;;9.60;99.90;;;;;;4889222;28;20517;-56
2024/04/04 02:17:40;;;;;;;14.77;9.50;;;9.60;99.90;;;;;;4952090;28;20498;-56
2024/04/04 02:20:09;;;;;;;12.55;8.63;;;9.60;99.90;;;;;;4904950;28;20064;-51
2024/04/04 02:22:37;;;;;;;20.50;9.45;;;9.60;99.90;;;;;;4912502;28;20030;-58
2024/04/04 02:25:04;;;;;;;15.75;8.75;;;9.60;99.90;;;;;;4919251;28;20072;-50
2024/04/04 02:27:31;;;;;;;13.82;8.52;;;9.50;99.90;;;;;;4889195;28;21875;-51
2024/04/04 02:29:57;;;;;;;12.32;7.97;;;9.60;99.90;;;;;;4941169;28;20040;-59
2024/04/04 02:32:23;;;;;;;14.15;8.70;;;9.60;99.90;;;;;;4908085;28;20022;-50
2024/04/04 02:34:48;;;;;;;11.45;8.35;;;9.60;99.90;;;;;;4890824;28;20033;-49
2024/04/04 02:37:14;;;;;;;9.55;7.63;;;9.60;99.90;;;;;;4923374;28;20018;-50
2024/04/04 02:39:40;;;;;;;11.80;8.23;;;9.60;99.90;;;;;;4883727;28;20053;-50
2024/04/04 02:42:06;;;;;;;14.75;8.48;;;9.60;99.90;;;;;;4921832;28;20465;-58
2024/04/04 02:44:33;;;;;;;12.93;8.45;;;9.60;99.90;;;;;;4936703;28;20028;-53
2024/04/04 02:46:59;;;;;;;12.30;8.25;;;9.50;99.90;;;;;;4894609;28;20923;-54
2024/04/04 02:49:25;;;;;;;13.05;7.65;;;9.50;99.90;;;;;;4917652;28;20410;-51
2024/04/04 02:51:50;;;;;;;10.05;7.35;;;9.50;99.90;;;;;;4885057;28;20066;-51
2024/04/04 02:54:16;;;;;;;11.85;7.88;;;9.50;99.90;;;;;;4885455;28;20561;-52
2024/04/04 02:56:41;;;;;;;11.20;7.90;;;9.50;99.90;;;;;;4936908;28;20034;-49
2024/04/04 02:59:07;;;;;;;11.82;6.88;;;9.50;99.90;;;;;;4922362;28;20057;-53
2024/04/04 03:01:33;;;;;;;10.38;7.55;;;9.50;99.90;;;;;;4928388;28;20518;-59
2024/04/04 03:03:58;;;;;;;11.05;7.28;;;9.50;99.90;;;;;;4948685;28;20557;-56
2024/04/04 03:06:24;;;;;;;9.55;6.75;;;9.50;99.90;;;;;;4963293;28;20067;-54
2024/04/04 03:08:49;;;;;;;11.23;6.65;;;9.50;99.90;;;;;;4950972;28;20071;-52
2024/04/04 03:11:15;;;;;;;9.23;7.22;;;9.50;99.90;;;;;;4951666;28;20029;-53
2024/04/04 03:13:41;;;;;;;9.73;6.20;;;9.50;99.90;;;;;;4932647;28;20133;-58
2024/04/04 03:16:06;;;;;;;8.82;5.85;;;9.50;99.90;;;;;;4958272;28;20029;-54
2024/04/04 03:18:32;;;;;;;9.75;6.15;;;9.50;99.90;;;;;;4937982;28;20399;-52
2024/04/04 03:20:58;;;;;;;11.48;6.28;;;9.50;99.90;;;;;;4927913;28;20459;-52
2024/04/04 03:23:23;;;;;;;11.35;5.60;;;9.40;99.90;;;;;;4941568;28;20138;-53
2024/04/04 03:25:49;;;;;;;6.97;5.40;;;9.50;99.90;;;;;;4919183;28;20037;-52
2024/04/04 03:28:15;;;;;;;10.02;6.13;;;9.40;99.90;;;;;;4973274;28;20029;-50
2024/04/04 03:30:40;;;;;;;7.63;5.28;;;9.40;99.90;;;;;;4932302;28;20659;-51
2024/04/04 03:33:06;;;;;;;9.27;5.25;;;9.40;99.90;;;;;;4919975;28;20026;-50
2024/04/04 03:35:32;;;;;;;9.68;5.28;;;9.30;99.90;;;;;;4911352;28;20040;-56
2024/04/04 03:37:57;;;;;;;7.25;4.97;;;9.40;99.90;;;;;;4944268;28;21024;-51
2024/04/04 03:40:23;;;;;;;8.50;4.75;;;9.40;99.90;;;;;;4963866;28;20030;-52
2024/04/04 03:42:48;;;;;;;6.65;4.22;;;9.30;99.90;;;;;;4931482;28;20026;-51
2024/04/04 03:45:14;;;;;;;10.57;4.95;;;9.30;99.90;;;;;;4913815;28;20113;-53
2024/04/04 03:47:40;;;;;;;9.65;4.85;;;9.30;99.90;;;;;;4912072;28;20125;-54
2024/04/04 03:50:06;;;;;;;7.03;4.50;;;9.30;99.90;;;;;;4934197;28;20025;-54
2024/04/04 03:52:32;;;;;;;5.40;4.53;;;9.20;99.90;;;;;;4960663;28;20032;-50
2024/04/04 03:54:57;;;;;;;9.82;4.55;;;9.30;99.90;;;;;;4939907;28;20025;-58
2024/04/04 03:57:24;;;;;;;8.60;4.85;;;9.20;99.90;;;;;;4935374;28;20026;-54
2024/04/04 03:59:49;;;;;;;8.25;4.65;;;9.20;99.90;;;;;;4924035;28;20025;-53
2024/04/04 04:02:15;;;;;;;6.97;4.72;;;9.20;99.90;;;;;;4937049;28;20040;-53
2024/04/04 04:04:41;;;;;;;7.70;4.85;;;9.20;99.90;;;;;;4924262;28;20033;-59
2024/04/04 04:07:06;;;;;;;5.90;4.50;;;9.30;99.90;;;;;;4943831;28;20120;-55
2024/04/04 04:09:33;;;;;;;6.43;4.55;;;9.20;99.90;;;;;;4911196;28;20636;-53
2024/04/04 04:11:58;;;;;;;9.43;4.30;;;9.20;99.90;;;;;;4926099;28;20029;-52
2024/04/04 04:14:24;;;;;;;6.43;4.07;;;9.20;99.90;;;;;;4931024;28;20674;-50
2024/04/04 04:16:49;;;;;;;8.80;4.25;;;9.20;99.90;;;;;;4895075;28;20022;-53
2024/04/04 04:19:15;;;;;;;7.93;4.78;;;9.20;99.90;;;;;;4967698;28;20033;-56
2024/04/04 04:21:40;;;;;;;5.15;3.95;;;9.20;99.90;;;;;;4916504;28;20029;-53
2024/04/04 04:24:06;;;;;;;8.38;4.00;;;9.20;99.90;;;;;;4918215;28;20438;-53
2024/04/04 04:26:32;;;;;;;7.22;4.13;;;9.20;99.90;;;;;;4893198;28;20026;-54
2024/04/04 04:28:58;;;;;;;8.35;4.28;;;9.10;99.90;;;;;;4929505;28;20877;-54
2024/04/04 04:31:35;;;;;;;6.05;4.10;;;9.10;99.90;;;;;;4981383;28;20117;-52
2024/04/04 04:34:05;;;;;;;8.90;4.47;;;9.10;99.90;;;;;;4918303;28;20029;-59
2024/04/04 04:36:32;;;;;;;6.05;3.63;;;9.10;99.90;;;;;;4910383;28;20050;-51
2024/04/04 04:38:58;;;;;;;6.85;4.25;;;9.10;99.90;;;;;;4930854;28;20034;-51
2024/04/04 04:41:23;;;;;;;8.43;4.20;;;9.10;99.90;;;;;;4921499;28;20044;-52
2024/04/04 04:43:50;;;;;;;6.82;4.30;;;9.00;99.90;;;;;;4896536;28;20033;-53
2024/04/04 04:46:16;;;;;;;7.50;4.00;;;9.00;99.90;;;;;;4981546;28;20072;-49
2024/04/04 04:48:42;;;;;;;5.55;3.42;;;9.00;99.90;;;;;;4970997;28;20025;-51
2024/04/04 04:51:08;;;;;;;6.53;4.30;;;9.00;99.90;;;;;;4961203;28;20034;-53
2024/04/04 04:53:34;;;;;;;10.75;4.20;;;9.00;99.90;;;;;;4967327;28;20117;-53
2024/04/04 04:56:00;;;;;;;8.68;3.85;;;9.00;99.90;;;;;;4974497;28;20120;-52
2024/04/04 04:58:26;;;;;;;8.73;4.32;;;9.00;99.90;;;;;;4975161;28;20609;-51
2024/04/04 05:00:52;;;;;;;5.13;3.42;;;8.90;99.90;;;;;;4931992;28;20026;-52
2024/04/04 05:03:21;;;;;;;6.50;3.35;;;8.90;99.90;;;;;;4911528;28;20033;-53
2024/04/04 05:05:48;;;;;;;9.07;3.80;;;8.90;99.90;;;;;;4910660;28;20022;-53
2024/04/04 05:08:14;;;;;;;6.25;4.15;;;8.80;99.90;;;;;;4910592;28;20030;-52
2024/04/04 05:10:39;;;;;;;6.18;3.40;;;8.80;99.90;;;;;;4980021;28;20022;-51
2024/04/04 05:13:06;;;;;;;4.25;3.50;;;8.80;99.90;;;;;;4940221;28;20041;-51
2024/04/04 05:15:41;;;;;;;4.57;3.15;;;8.80;99.90;;;;;;4970043;28;20084;-51
2024/04/04 05:18:07;;;;;;;6.45;3.95;;;8.70;99.90;;;;;;4945660;28;20521;-53
2024/04/04 05:20:33;;;;;;;4.55;3.47;;;8.70;99.90;;;;;;4939466;28;20037;-59
2024/04/04 05:22:58;;;;;;;6.78;3.08;;;8.70;99.90;;;;;;4983859;28;20075;-54
2024/04/04 05:25:24;;;;;;;7.97;3.55;;;8.70;99.90;;;;;;4997208;23;20041;-53
2024/04/04 05:27:50;;;;;;;4.70;3.35;;;8.70;99.90;;;;;;4962365;28;20080;-51
2024/04/04 05:30:15;;;;;;;5.53;3.55;;;8.70;99.90;;;;;;4941585;28;20416;-49
2024/04/04 05:32:41;;;;;;;9.43;3.65;;;8.70;99.90;;;;;;4962453;28;20030;-50
2024/04/04 05:35:07;;;;;;;8.65;3.78;;;8.80;99.90;;;;;;4973984;28;20052;-53
2024/04/04 05:37:34;;;;;;;12.52;3.60;;;8.80;99.90;;;;;;4940917;28;20025;-54
2024/04/04 05:40:00;;;;;;;3.63;3.03;;;8.80;99.90;;;;;;4963113;28;20076;-58
2024/04/04 05:42:30;;;;;;;5.07;3.05;;;8.80;99.90;;;;;;4976950;28;20041;-51
2024/04/04 05:44:55;;;;;;;5.72;3.33;;;8.70;99.90;;;;;;4959111;28;20034;-51
2024/04/04 05:47:21;;;;;;;6.28;3.30;;;8.80;99.90;;;;;;4972132;28;20026;-52
2024/04/04 05:49:47;;;;;;;5.38;3.30;;;8.80;99.90;;;;;;4955457;28;20025;-54
2024/04/04 05:52:12;;;;;;;7.50;3.00;;;8.80;99.90;;;;;;4923689;28;20030;-51
2024/04/04 05:54:39;;;;;;;8.95;2.95;;;8.90;99.90;;;;;;4959065;28;20034;-50
2024/04/04 05:57:05;;;;;;;5.55;3.58;;;8.80;99.90;;;;;;4953291;28;20100;-50
2024/04/04 05:59:31;;;;;;;3.40;2.63;;;8.90;99.90;;;;;;4957277;28;20038;-49
2024/04/04 06:01:57;;;;;;;10.43;3.53;;;8.90;99.90;;;;;;4961582;28;20048;-50
2024/04/04 06:04:22;;;;;;;4.90;2.88;;;8.90;99.90;;;;;;4925575;28;21541;-53
2024/04/04 06:06:48;;;;;;;7.00;2.55;;;9.00;99.90;;;;;;4963399;28;20666;-50
2024/04/04 06:09:14;;;;;;;6.63;3.08;;;9.00;99.90;;;;;;4921225;28;20429;-49
2024/04/04 06:11:40;;;;;;;5.57;2.92;;;9.00;99.90;;;;;;4935212;28;20045;-50
2024/04/04 06:14:06;;;;;;;5.85;2.30;;;9.00;99.90;;;;;;4973516;28;20031;-52
2024/04/04 06:16:32;;;;;;;4.95;2.20;;;9.00;99.90;;;;;;4946872;28;20320;-50
2024/04/04 06:18:58;;;;;;;6.75;2.47;;;9.00;99.90;;;;;;4967828;28;20060;-58
2024/04/04 06:21:24;;;;;;;8.05;2.20;;;9.00;99.90;;;;;;4955850;28;20514;-49
2024/04/04 06:23:49;;;;;;;4.82;2.28;;;9.00;99.90;;;;;;4921304;28;20482;-49
2024/04/04 06:26:15;;;;;;;3.58;2.10;;;9.00;99.90;;;;;;4966987;28;20030;-51
2024/04/04 06:28:41;;;;;;;6.35;2.30;;;9.00;99.90;;;;;;4929299;28;20030;-53
2024/04/04 06:31:06;;;;;;;5.00;1.92;;;9.00;99.90;;;;;;4932872;28;20042;-50
2024/04/04 06:33:32;;;;;;;8.48;2.35;;;9.00;99.90;;;;;;4948695;28;20088;-49
2024/04/04 06:35:57;;;;;;;5.05;2.05;;;9.00;99.90;;;;;;4911332;28;20037;-53
2024/04/04 06:38:23;;;;;;;8.02;2.28;;;9.10;99.90;;;;;;4962093;28;20037;-51
2024/04/04 06:40:49;;;;;;;2.75;1.50;;;9.10;99.90;;;;;;4929776;28;20271;-50
2024/04/04 06:43:14;;;;;;;5.22;1.98;;;9.10;99.90;;;;;;4929392;28;20081;-52
2024/04/04 06:45:41;;;;;;;5.25;2.05;;;9.20;99.90;;;;;;4950238;28;20033;-49
2024/04/04 06:48:07;;;;;;;5.50;2.03;;;9.30;99.90;;;;;;4924520;28;20054;-51
2024/04/04 06:50:32;;;;;;;5.53;2.10;;;9.40;99.90;;;;;;4959114;28;20057;-59
2024/04/04 06:52:58;;;;;;;3.13;1.73;;;9.50;99.90;;;;;;4943297;28;20583;-50
2024/04/04 06:55:24;;;;;;;6.10;2.30;;;9.60;99.90;;;;;;4901983;28;21250;-49
2024/04/04 06:57:49;;;;;;;5.47;1.65;;;9.70;99.90;;;;;;4961838;28;21013;-53
2024/04/04 07:00:16;;;;;;;4.32;1.77;;;9.70;99.90;;;;;;4904937;28;20041;-52
2024/04/04 07:02:42;;;;;;;5.57;1.70;;;9.70;99.90;;;;;;4900828;28;20171;-51
2024/04/04 07:05:11;;;;;;;3.70;1.77;;;9.70;99.90;;;;;;4981848;28;20033;-51
2024/04/04 07:07:37;;;;;;;2.90;1.58;;;9.70;99.90;;;;;;4900706;28;20049;-50
2024/04/04 07:10:07;;;;;;;5.28;1.50;;;9.70;99.90;;;;;;4932475;28;20034;-59
2024/04/04 07:12:33;;;;;;;5.28;1.65;;;9.70;99.90;;;;;;4968797;28;20101;-54
2024/04/04 07:14:58;;;;;;;2.20;1.35;;;9.80;99.90;;;;;;4900916;28;20025;-49
2024/04/04 07:17:24;;;;;;;4.43;2.03;;;9.80;99.90;;;;;;4956333;28;20452;-60
2024/04/04 07:19:54;;;;;;;5.32;1.73;;;9.90;99.90;;;;;;4895490;28;20112;-52
2024/04/04 07:22:20;;;;;;;5.72;2.22;;;10.00;99.90;;;;;;4907888;28;22297;-49
2024/04/04 07:24:46;;;;;;;7.20;2.30;;;10.20;99.90;;;;;;4962994;28;20032;-54
2024/04/04 07:27:11;;;;;;;4.72;1.35;;;10.30;99.90;;;;;;4906370;28;20030;-53
2024/04/04 07:29:37;;;;;;;1.88;1.48;;;10.40;99.90;;;;;;4920486;28;20034;-58
2024/04/04 07:32:03;;;;;;;2.00;1.38;;;10.60;99.90;;;;;;4952588;28;20034;-48
2024/04/04 07:34:29;;;;;;;3.92;1.77;;;10.80;99.90;;;;;;4889644;28;20030;-50
2024/04/04 07:36:56;;;;;;;3.42;1.48;;;11.00;99.90;;;;;;4940890;28;20026;-52
2024/04/04 07:39:22;;;;;;;3.15;0.93;;;11.10;99.90;;;;;;4898619;28;20037;-48
2024/04/04 07:41:48;;;;;;;5.07;1.70;;;11.40;99.90;;;;;;4902250;28;20607;-52
2024/04/04 07:44:15;;;;;;;4.05;1.63;;;11.50;99.90;;;;;;4953040;28;20050;-51
2024/04/04 07:46:41;;;;;;;4.72;1.40;;;11.70;99.90;;;;;;4908088;28;20032;-53
2024/04/04 07:49:07;;;;;;;2.35;1.40;;;11.70;99.90;;;;;;4946929;28;20510;-51
2024/04/04 07:51:33;;;;;;;3.70;1.17;;;11.80;99.90;;;;;;4953137;28;20117;-50
2024/04/04 07:53:59;;;;;;;5.15;1.42;;;11.80;99.90;;;;;;4934901;28;20034;-50
2024/04/04 07:56:24;;;;;;;5.38;1.20;;;11.90;99.90;;;;;;4950783;28;20033;-55
2024/04/04 07:58:51;;;;;;;2.50;0.90;;;11.90;99.90;;;;;;4911377;28;20529;-49
2024/04/04 08:01:17;;;;;;;2.17;0.77;;;11.90;99.90;;;;;;4917063;28;20030;-50
2024/04/04 08:03:46;;;;;;;2.15;0.80;;;11.90;99.90;;;;;;4964046;28;20548;-50
2024/04/04 08:06:12;;;;;;;5.10;1.50;;;11.90;99.90;;;;;;4919265;28;20553;-51
2024/04/04 08:08:39;;;;;;;4.88;1.42;;;11.80;99.90;;;;;;4919291;28;21447;-60
2024/04/04 08:11:06;;;;;;;3.22;0.90;;;11.70;99.90;;;;;;4946828;28;20049;-51
2024/04/04 08:13:32;;;;;;;1.90;1.15;;;11.70;99.90;;;;;;4930018;28;20072;-51
2024/04/04 08:15:58;;;;;;;5.78;1.95;;;11.60;99.90;;;;;;4942935;28;20038;-60
2024/04/04 08:18:23;;;;;;;3.58;1.45;;;11.50;99.90;;;;;;4919434;28;20824;-49
2024/04/04 08:20:49;;;;;;;2.78;1.08;;;11.40;99.90;;;;;;4910134;28;20096;-51
2024/04/04 08:23:14;;;;;;;2.05;1.27;;;11.30;99.90;;;;;;4943401;28;20391;-50
2024/04/04 08:25:40;;;;;;;5.38;1.40;;;11.20;99.90;;;;;;4906558;28;20034;-52
2024/04/04 08:28:06;;;;;;;4.68;1.38;;;11.20;99.90;;;;;;4924945;28;20031;-60
2024/04/04 08:30:32;;;;;;;2.50;0.80;;;11.20;99.90;;;;;;4948171;28;20057;-50
2024/04/04 08:32:58;;;;;;;7.80;1.83;;;11.10;99.90;;;;;;4912655;28;21666;-51
2024/04/04 08:35:24;;;;;;;6.85;1.48;;;11.10;99.90;;;;;;4942234;28;20107;-50
2024/04/04 08:37:50;;;;;;;1.30;1.10;;;11.10;99.90;;;;;;4903893;28;20065;-49
2024/04/04 08:40:15;;;;;;;3.38;1.23;;;11.00;99.90;;;;;;4902220;28;20038;-53
2024/04/04 08:42:42;;;;;;;6.18;1.42;;;11.00;99.90;;;;;;4960719;28;20076;-52
2024/04/04 08:45:12;;;;;;;2.83;0.77;;;11.00;99.90;;;;;;4911631;28;20033;-52
2024/04/04 08:47:42;;;;;;;3.17;1.02;;;10.90;99.90;;;;;;4916774;28;20482;-58
2024/04/04 08:50:08;;;;;;;3.22;1.20;;;10.90;99.90;;;;;;4945355;28;20026;-51
2024/04/04 08:52:34;;;;;;;2.53;0.95;;;10.80;99.90;;;;;;4936405;28;20037;-51
2024/04/04 08:55:00;;;;;;;3.50;1.08;;;10.80;99.90;;;;;;4952362;28;20049;-59
2024/04/04 08:57:26;;;;;;;3.50;1.10;;;10.80;99.90;;;;;;4923071;28;20022;-50
2024/04/04 08:59:59;;;;;;;3.65;1.52;;;10.80;99.90;;;;;;4942270;28;20152;-51
2024/04/04 09:02:26;;;;;;;3.03;1.60;;;10.80;99.90;;;;;;4976620;28;20640;-50
2024/04/04 09:05:08;;;;;;;5.38;1.65;;;10.80;99.90;;;;;;4896794;28;20030;-52
2024/04/04 09:07:35;;;;;;;5.28;1.20;;;10.80;99.90;;;;;;4899515;28;20422;-49
2024/04/04 09:10:02;;;;;;;6.32;2.42;;;10.70;99.90;;;;;;4944153;28;20041;-58
2024/04/04 09:12:27;;;;;;;4.22;1.50;;;10.70;99.90;;;;;;4926052;28;20037;-53
2024/04/04 09:15:02;;;;;;;2.50;1.27;;;10.60;99.90;;;;;;4904357;28;21531;-52
2024/04/04 09:17:28;;;;;;;6.88;1.58;;;10.50;99.90;;;;;;4932519;28;20029;-50
2024/04/04 09:19:57;;;;;;;3.85;1.88;;;10.50;99.90;;;;;;4890340;28;20045;-50
2024/04/04 09:22:24;;;;;;;3.17;1.48;;;10.50;99.90;;;;;;4895760;28;21762;-50
2024/04/04 09:24:50;;;;;;;3.65;1.08;;;10.50;99.90;;;;;;4951069;28;20068;-50
2024/04/04 09:27:19;;;;;;;4.05;1.08;;;10.50;99.90;;;;;;4910932;28;20501;-50
2024/04/04 09:29:46;;;;;;;2.45;1.55;;;10.50;99.90;;;;;;4890961;28;20073;-49
2024/04/04 09:32:13;;;;;;;3.00;1.25;;;10.40;99.90;;;;;;4929529;28;20098;-52
2024/04/04 09:34:41;;;;;;;6.10;2.00;;;10.40;99.90;;;;;;4883772;28;20080;-51
2024/04/04 09:37:08;;;;;;;2.80;1.20;;;10.40;99.90;;;;;;4931492;28;20053;-59
2024/04/04 09:39:35;;;;;;;5.03;1.75;;;10.40;99.90;;;;;;4942977;28;20442;-50
2024/04/04 09:42:03;;;;;;;4.32;1.13;;;10.40;99.90;;;;;;4910785;28;20490;-51
2024/04/04 09:44:29;;;;;;;3.30;1.52;;;10.40;99.90;;;;;;4944847;28;20502;-52
2024/04/04 09:46:58;;;;;;;3.78;1.52;;;10.40;99.90;;;;;;4881182;28;20026;-50
2024/04/04 09:49:24;;;;;;;5.10;1.20;;;10.30;99.90;;;;;;4958140;28;20088;-50
2024/04/04 09:51:53;;;;;;;4.95;1.75;;;10.30;99.90;;;;;;4963779;28;20026;-54
2024/04/04 09:54:20;;;;;;;5.15;1.55;;;10.30;99.90;;;;;;4957027;28;20041;-55
2024/04/04 09:56:48;;;;;;;3.03;1.15;;;10.30;99.90;;;;;;4938233;28;20042;-51
2024/04/04 09:59:13;;;;;;;2.55;1.35;;;10.30;99.90;;;;;;4978132;28;20037;-50
2024/04/04 10:01:39;;;;;;;2.42;1.10;;;10.30;99.90;;;;;;4932895;28;20027;-52
2024/04/04 10:04:05;;;;;;;5.35;1.63;;;10.30;99.90;;;;;;4941270;28;20485;-50
2024/04/04 10:06:40;;;;;;;4.90;1.73;;;10.30;99.90;;;;;;4941961;28;20022;-54
2024/04/04 10:09:35;;;;;;;4.28;1.55;;;10.20;99.90;;;;;;4947067;28;20037;-51
2024/04/04 10:12:08;;;;;;;4.38;1.33;;;10.20;99.90;;;;;;4941058;28;21555;-55
2024/04/04 10:14:34;;;;;;;5.22;1.42;;;10.20;99.90;;;;;;4960365;28;20036;-60
2024/04/04 10:17:05;;;;;;;2.97;1.05;;;10.10;99.90;;;;;;4930180;28;20034;-60
2024/04/04 10:19:32;;;;;;;5.10;1.27;;;10.10;99.90;;;;;;4927885;28;20033;-54
2024/04/04 10:21:58;;;;;;;5.50;1.25;;;10.10;99.90;;;;;;4934590;28;20026;-54
2024/04/04 10:24:28;;;;;;;5.38;1.17;;;10.10;99.90;;;;;;4940286;28;20088;-50
2024/04/04 10:26:57;;;;;;;3.58;1.27;;;10.10;99.90;;;;;;4944369;28;21562;-52
2024/04/04 10:29:22;;;;;;;3.35;1.27;;;10.00;99.90;;;;;;4973829;28;20022;-52
2024/04/04 10:31:48;;;;;;;6.20;1.50;;;10.00;99.90;;;;;;4940347;28;20022;-53
2024/04/04 10:34:14;;;;;;;3.47;1.40;;;10.00;99.90;;;;;;4929261;28;20041;-53
2024/04/04 10:36:43;;;;;;;1.45;1.20;;;10.00;99.90;;;;;;4911874;28;20026;-57
2024/04/04 10:39:12;;;;;;;2.88;1.48;;;10.00;99.90;;;;;;4936777;28;20129;-55
2024/04/04 10:41:40;;;;;;;4.00;1.60;;;10.00;99.90;;;;;;4958915;28;20548;-61
2024/04/04 10:44:20;;;;;;;4.65;1.88;;;10.00;99.90;;;;;;4948501;28;20022;-52
2024/04/04 10:46:58;;;;;;;2.80;1.48;;;10.10;99.90;;;;;;4934248;28;20084;-56
2024/04/04 10:49:27;;;;;;;4.00;1.30;;;10.10;99.90;;;;;;4937180;28;20029;-57
2024/04/04 10:52:00;;;;;;;3.10;1.20;;;10.10;99.90;;;;;;4908394;28;20497;-56
2024/04/04 10:54:27;;;;;;;3.30;1.42;;;10.10;99.90;;;;;;4923832;28;20033;-61
2024/04/04 10:56:53;;;;;;;3.00;1.50;;;10.10;99.90;;;;;;4964936;28;22722;-55
2024/04/04 10:59:19;;;;;;;4.18;1.60;;;10.10;99.90;;;;;;4958088;28;21392;-54
2024/04/04 11:01:49;;;;;;;1.92;1.13;;;10.10;99.90;;;;;;4929900;28;20034;-57
2024/04/04 11:04:16;;;;;;;2.33;1.20;;;10.20;99.90;;;;;;4939840;28;20034;-56
2024/04/04 11:06:43;;;;;;;2.10;1.30;;;10.20;99.90;;;;;;4915834;28;20022;-54
2024/04/04 11:09:15;;;;;;;2.03;1.23;;;10.20;99.90;;;;;;4928291;28;20431;-56
2024/04/04 11:11:48;;;;;;;2.53;1.48;;;10.20;99.90;;;;;;4933820;28;20035;-61
2024/04/04 11:14:14;;;;;;;2.20;1.30;;;10.20;99.90;;;;;;4980471;28;20033;-54
2024/04/04 11:16:44;;;;;;;3.10;1.88;;;10.20;99.90;;;;;;4914235;28;20030;-52
2024/04/04 11:19:10;;;;;;;2.30;1.33;;;10.20;99.90;;;;;;4925108;28;20642;-56
2024/04/04 11:21:37;;;;;;;3.28;1.50;;;10.30;99.90;;;;;;4895917;28;20461;-57
2024/04/04 11:24:04;;;;;;;1.48;1.38;;;10.30;99.90;;;;;;4927928;28;20045;-53
2024/04/04 11:26:30;;;;;;;3.22;1.55;;;10.30;99.90;;;;;;4986123;22;20078;-48
2024/04/04 11:28:58;;;;;;;3.38;1.77;;;10.30;99.90;;;;;;4939119;28;20041;-51
2024/04/04 11:31:24;;;;;;;3.25;2.38;;;10.40;99.90;;;;;;4909012;28;21084;-53
2024/04/04 11:33:50;;;;;;;2.28;1.55;;;10.40;99.90;;;;;;4920415;28;20029;-52
2024/04/04 11:36:16;;;;;;;2.35;2.03;;;10.40;99.90;;;;;;4915443;28;20042;-54
2024/04/04 11:38:42;;;;;;;3.83;1.98;;;10.40;99.90;;;;;;4920563;28;20562;-58
2024/04/04 11:41:07;;;;;;;2.75;1.80;;;10.50;99.90;;;;;;4942233;28;20030;-55
2024/04/04 11:43:34;;;;;;;3.70;1.90;;;10.50;99.90;;;;;;4901549;28;20018;-53
2024/04/04 11:46:01;;;;;;;2.22;1.90;;;10.50;99.90;;;;;;4863828;28;20030;-54
2024/04/04 11:48:27;;;;;;;5.75;2.08;;;10.50;99.90;;;;;;4895576;28;20085;-58
2024/04/04 11:50:53;;;;;;;2.45;1.90;;;10.50;99.90;;;;;;4917149;28;21399;-50
2024/04/04 11:53:18;;;;;;;4.18;2.13;;;10.60;99.90;;;;;;4948860;28;21507;-55
2024/04/04 11:55:44;;;;;;;2.95;2.17;;;10.60;99.90;;;;;;4916862;28;20122;-53
2024/04/04 11:58:10;;;;;;;2.10;1.80;;;10.60;99.90;;;;;;4893979;28;20113;-54
2024/04/04 12:00:36;;;;;;;1.67;1.58;;;10.70;99.90;;;;;;4891228;28;20021;-54
2024/04/04 12:03:05;;;;;;;2.72;1.98;;;10.70;99.90;;;;;;4897262;28;21443;-51
2024/04/04 12:05:34;;;;;;;2.60;1.83;;;10.80;99.90;;;;;;4955883;28;20022;-54
2024/04/04 12:08:01;;;;;;;3.20;2.30;;;10.90;99.90;;;;;;4910081;28;20026;-58
2024/04/04 12:10:27;;;;;;;8.30;3.75;;;11.00;99.90;;;;;;4876948;28;20018;-53
2024/04/04 12:12:56;;;;;;;18.90;9.57;;;11.00;99.90;;;;;;4888058;28;20473;-49
2024/04/04 12:15:22;;;;;;;4.38;3.08;;;11.00;99.90;;;;;;4893068;28;20191;-53
2024/04/04 12:17:52;;;;;;;8.25;5.30;;;11.10;99.90;;;;;;4938927;28;20554;-54
2024/04/04 12:20:19;;;;;;;10.98;7.28;;;11.20;99.90;;;;;;4946948;28;20026;-50
2024/04/04 12:22:48;;;;;;;4.43;3.50;;;11.30;99.90;;;;;;4947332;28;20038;-56
2024/04/04 12:25:17;;;;;;;5.65;5.18;;;11.40;99.90;;;;;;4949910;28;20093;-54
2024/04/04 12:27:43;;;;;;;7.57;6.88;;;11.50;99.90;;;;;;4940350;28;20472;-49
2024/04/04 12:30:09;;;;;;;4.15;2.40;;;11.60;99.90;;;;;;4960593;28;20022;-52
2024/04/04 12:32:35;;;;;;;4.75;4.00;;;11.80;99.90;;;;;;4928086;28;20863;-54
2024/04/04 12:35:01;;;;;;;3.72;3.25;;;12.00;99.90;;;;;;4972037;28;20046;-58
2024/04/04 12:37:26;;;;;;;9.82;8.95;;;12.10;99.90;;;;;;4954689;28;20521;-50
2024/04/04 12:39:52;;;;;;;5.18;4.68;;;12.20;99.90;;;;;;4935118;28;20518;-50
2024/04/04 12:42:18;;;;;;;8.75;8.02;;;12.30;99.90;;;;;;4956938;28;20108;-51
2024/04/04 12:44:47;;;;;;;3.75;3.45;;;12.30;99.90;;;;;;4914778;28;20557;-53
2024/04/04 12:47:13;;;;;;;2.40;2.20;;;12.30;99.90;;;;;;4935562;28;20057;-52